Time;durP1;ratioP1;P1;durP2;ratioP2;P2;SDS_P1;SDS_P2;PMS_P1;PMS_P2;Temp;Humidity;BMP_temperature;BMP_pressure;BME280_temperature;BME280_humidity;BME280_pressure;Samples;Min_cycle;Max_cycle;Signal;HPM_P1;HPM_P2
2022/10/06 00:00:48;;;;;;;24.27;12.88;;;;;;;;;;6246492;23;20111;-72
2022/10/06 00:03:16;;;;;;;27.25;13.40;;;;;;;;;;6246589;23;20442;-72
2022/10/06 00:05:44;;;;;;;29.60;14.27;;;;;;;;;;6246600;23;20050;-72
2022/10/06 00:08:11;;;;;;;27.40;14.57;;;;;;;;;;6246579;23;20024;-72
2022/10/06 00:10:39;;;;;;;19.98;12.95;;;;;;;;;;6246443;23;20012;-72
2022/10/06 00:13:06;;;;;;;28.65;14.68;;;;;;;;;;6246608;23;20040;-72
2022/10/06 00:15:34;;;;;;;23.25;13.27;;;;;;;;;;6219181;23;20141;-72
2022/10/06 00:18:02;;;;;;;21.48;12.05;;;;;;;;;;6246510;23;20512;-72
2022/10/06 00:20:29;;;;;;;27.30;13.25;;;;;;;;;;6246380;23;20016;-73
2022/10/06 00:22:57;;;;;;;27.10;14.63;;;;;;;;;;6219911;23;20023;-72
2022/10/06 00:25:25;;;;;;;20.92;12.10;;;;;;;;;;6246271;23;20016;-72
2022/10/06 00:27:52;;;;;;;30.15;16.42;;;;;;;;;;6246653;23;20012;-72
2022/10/06 00:30:24;;;;;;;39.72;22.77;;;;;;;;;;6246388;23;20326;-72
2022/10/06 00:32:57;;;;;;;22.67;10.95;;;;;;;;;;6219396;23;20027;-72
2022/10/06 00:35:25;;;;;;;23.15;11.20;;;;;;;;;;6246283;23;20320;-72
2022/10/06 00:37:52;;;;;;;19.92;10.70;;;;;;;;;;6218901;23;20020;-72
2022/10/06 00:40:20;;;;;;;24.63;13.00;;;;;;;;;;6219130;23;20020;-72
2022/10/06 00:42:52;;;;;;;25.23;12.27;;;;;;;;;;6219304;23;20023;-72
2022/10/06 00:45:43;;;;;;;37.00;21.38;;;;;;;;;;6219243;23;20319;-72
2022/10/06 00:48:23;;;;;;;33.90;18.30;;;;;;;;;;6208850;23;20020;-72
2022/10/06 00:50:52;;;;;;;39.38;20.90;;;;;;;;;;6219322;23;20016;-72
2022/10/06 00:53:20;;;;;;;24.38;11.95;;;;;;;;;;6245954;23;20095;-72
2022/10/06 00:55:48;;;;;;;25.13;12.98;;;;;;;;;;6219100;23;20046;-72
2022/10/06 00:58:16;;;;;;;40.97;22.85;;;;;;;;;;6219622;23;20468;-72
2022/10/06 01:00:44;;;;;;;20.17;11.02;;;;;;;;;;6218987;23;20446;-72
2022/10/06 01:03:15;;;;;;;25.83;13.18;;;;;;;;;;6219125;23;20024;-72
2022/10/06 01:05:47;;;;;;;37.17;19.17;;;;;;;;;;6219104;23;20087;-72
2022/10/06 01:08:15;;;;;;;22.23;12.30;;;;;;;;;;6219082;23;20024;-72
2022/10/06 01:10:43;;;;;;;35.65;15.82;;;;;;;;;;6219118;23;20016;-73
2022/10/06 01:13:12;;;;;;;28.23;15.80;;;;;;;;;;6218862;23;20031;-72
2022/10/06 01:15:44;;;;;;;23.38;12.05;;;;;;;;;;6218978;23;20020;-72
2022/10/06 01:18:13;;;;;;;26.13;14.82;;;;;;;;;;6219115;23;20062;-72
2022/10/06 01:20:45;;;;;;;31.13;16.42;;;;;;;;;;6245750;23;20023;-72
2022/10/06 01:23:12;;;;;;;30.75;14.18;;;;;;;;;;6218916;23;20020;-72
2022/10/06 01:25:40;;;;;;;25.98;15.25;;;;;;;;;;6245634;23;20027;-72
2022/10/06 01:28:08;;;;;;;28.25;14.00;;;;;;;;;;6219055;23;20111;-73
2022/10/06 01:30:42;;;;;;;25.63;14.40;;;;;;;;;;6218936;23;20074;-72
2022/10/06 01:33:10;;;;;;;28.67;13.65;;;;;;;;;;6218916;23;20027;-72
2022/10/06 01:35:37;;;;;;;27.67;13.57;;;;;;;;;;6218923;23;20421;-72
2022/10/06 01:38:06;;;;;;;30.63;15.07;;;;;;;;;;6218756;23;20043;-72
2022/10/06 01:40:34;;;;;;;27.38;12.57;;;;;;;;;;6218767;23;20074;-72
2022/10/06 01:43:02;;;;;;;27.48;13.15;;;;;;;;;;6218959;23;20031;-72
2022/10/06 01:45:29;;;;;;;26.98;12.82;;;;;;;;;;6218789;23;20446;-72
2022/10/06 01:47:57;;;;;;;23.80;13.23;;;;;;;;;;6245413;23;20094;-72
2022/10/06 01:50:24;;;;;;;24.33;13.07;;;;;;;;;;6218782;23;20439;-72
2022/10/06 01:52:52;;;;;;;26.88;14.93;;;;;;;;;;6218634;23;20020;-72
2022/10/06 01:55:19;;;;;;;24.30;11.93;;;;;;;;;;6218776;23;20016;-72
2022/10/06 01:57:47;;;;;;;22.50;11.10;;;;;;;;;;6218642;23;20437;-72
2022/10/06 02:00:16;;;;;;;23.55;11.57;;;;;;;;;;6218573;23;20020;-72
2022/10/06 02:02:45;;;;;;;27.42;12.48;;;;;;;;;;6218459;23;20450;-72
2022/10/06 02:05:14;;;;;;;23.35;12.90;;;;;;;;;;6245147;23;20062;-72
2022/10/06 02:07:46;;;;;;;23.10;12.50;;;;;;;;;;6218469;23;20020;-72
2022/10/06 02:10:15;;;;;;;23.65;13.23;;;;;;;;;;6218466;23;20024;-72
2022/10/06 02:12:44;;;;;;;28.38;12.70;;;;;;;;;;6218784;23;20103;-73
2022/10/06 02:15:11;;;;;;;24.52;12.57;;;;;;;;;;6245454;23;20012;-72
2022/10/06 02:17:39;;;;;;;27.17;12.80;;;;;;;;;;6218590;23;20093;-72
2022/10/06 02:20:06;;;;;;;25.65;12.80;;;;;;;;;;6245236;23;20442;-72
2022/10/06 02:22:37;;;;;;;23.95;12.65;;;;;;;;;;6218477;23;20043;-72
2022/10/06 02:25:05;;;;;;;27.50;12.82;;;;;;;;;;6218267;23;20501;-72
2022/10/06 02:27:33;;;;;;;23.48;12.77;;;;;;;;;;6218510;23;20016;-72
2022/10/06 02:30:01;;;;;;;26.13;12.90;;;;;;;;;;6245370;23;20512;-72
2022/10/06 02:32:34;;;;;;;24.55;12.98;;;;;;;;;;6218461;23;20346;-72
2022/10/06 02:35:02;;;;;;;24.17;13.52;;;;;;;;;;6218464;23;20070;-72
2022/10/06 02:37:30;;;;;;;21.33;12.07;;;;;;;;;;6218257;23;20024;-72
2022/10/06 02:39:59;;;;;;;23.30;13.30;;;;;;;;;;6218478;23;20051;-72
2022/10/06 02:42:26;;;;;;;23.33;12.52;;;;;;;;;;6218349;23;20407;-72
2022/10/06 02:44:54;;;;;;;28.17;12.75;;;;;;;;;;6218393;23;20085;-72
2022/10/06 02:47:21;;;;;;;25.15;12.80;;;;;;;;;;6218474;23;20389;-72
2022/10/06 02:49:49;;;;;;;22.13;11.65;;;;;;;;;;6218307;23;20024;-72
2022/10/06 02:52:17;;;;;;;24.65;12.93;;;;;;;;;;6245250;23;20016;-72
2022/10/06 02:54:45;;;;;;;22.50;12.25;;;;;;;;;;6218228;23;20439;-72
2022/10/06 02:57:14;;;;;;;21.58;11.68;;;;;;;;;;6218338;23;20020;-72
2022/10/06 02:59:42;;;;;;;24.85;13.30;;;;;;;;;;6218332;23;20044;-72
2022/10/06 03:02:09;;;;;;;26.15;12.10;;;;;;;;;;6218174;23;20070;-72
2022/10/06 03:04:37;;;;;;;26.60;12.90;;;;;;;;;;6218096;23;20466;-72
2022/10/06 03:07:05;;;;;;;22.45;12.40;;;;;;;;;;6218262;23;20115;-72
2022/10/06 03:09:36;;;;;;;28.38;12.77;;;;;;;;;;6218278;23;20085;-72
2022/10/06 03:12:03;;;;;;;21.67;11.77;;;;;;;;;;6218326;23;20517;-72
2022/10/06 03:14:37;;;;;;;21.33;11.73;;;;;;;;;;6218442;23;20020;-73
2022/10/06 03:17:10;;;;;;;22.58;11.52;;;;;;;;;;6195894;23;20020;-72
2022/10/06 03:19:44;;;;;;;24.98;13.20;;;;;;;;;;6196797;23;20047;-72
2022/10/06 03:22:13;;;;;;;19.58;10.95;;;;;;;;;;6220093;23;20030;-72
2022/10/06 03:24:46;;;;;;;20.38;11.65;;;;;;;;;;6219889;23;20070;-73
2022/10/06 03:27:13;;;;;;;25.02;12.13;;;;;;;;;;6220154;23;20070;-72
2022/10/06 03:29:41;;;;;;;21.05;12.25;;;;;;;;;;6219979;23;20043;-72
2022/10/06 03:32:08;;;;;;;20.25;11.88;;;;;;;;;;6220168;23;20024;-72
2022/10/06 03:34:37;;;;;;;19.60;11.55;;;;;;;;;;6220048;23;20028;-72
2022/10/06 03:37:07;;;;;;;22.02;11.65;;;;;;;;;;6219942;23;20468;-73
2022/10/06 03:39:35;;;;;;;21.80;10.52;;;;;;;;;;6220033;23;20043;-72
2022/10/06 03:42:02;;;;;;;20.90;13.25;;;;;;;;;;6219881;23;20082;-72
2022/10/06 03:44:33;;;;;;;18.42;10.93;;;;;;;;;;6220027;23;20020;-72
2022/10/06 03:47:01;;;;;;;22.40;12.10;;;;;;;;;;6219847;23;20027;-73
2022/10/06 03:49:30;;;;;;;21.52;12.18;;;;;;;;;;6219714;23;20500;-73
2022/10/06 03:51:58;;;;;;;17.42;11.95;;;;;;;;;;6219767;23;20040;-73
2022/10/06 03:54:30;;;;;;;19.52;11.18;;;;;;;;;;6219842;23;20044;-72
2022/10/06 03:56:57;;;;;;;19.88;11.02;;;;;;;;;;6246648;23;20027;-73
2022/10/06 03:59:27;;;;;;;22.13;11.48;;;;;;;;;;6219796;23;20023;-73
2022/10/06 04:01:57;;;;;;;21.83;11.75;;;;;;;;;;6219607;23;20034;-73
2022/10/06 04:04:29;;;;;;;22.02;11.27;;;;;;;;;;6219710;23;20477;-73
2022/10/06 04:07:00;;;;;;;20.83;11.30;;;;;;;;;;6219466;23;20078;-73
2022/10/06 04:09:28;;;;;;;21.63;11.38;;;;;;;;;;6219476;23;20020;-72
2022/10/06 04:11:56;;;;;;;19.05;10.90;;;;;;;;;;6219531;23;20327;-73
2022/10/06 04:14:24;;;;;;;20.15;11.60;;;;;;;;;;6219713;23;20026;-73
2022/10/06 04:16:52;;;;;;;20.27;11.32;;;;;;;;;;6219625;23;20024;-72
2022/10/06 04:19:24;;;;;;;19.63;11.23;;;;;;;;;;6219539;23;20104;-72
2022/10/06 04:21:54;;;;;;;21.40;12.38;;;;;;;;;;6219423;23;20070;-73
2022/10/06 04:24:23;;;;;;;25.60;13.15;;;;;;;;;;6219205;23;20027;-73
2022/10/06 04:26:52;;;;;;;22.40;11.00;;;;;;;;;;6216597;23;20024;-73
2022/10/06 04:29:20;;;;;;;24.00;13.25;;;;;;;;;;6218970;23;20023;-73
2022/10/06 04:31:53;;;;;;;19.63;12.00;;;;;;;;;;6217946;23;20106;-74
2022/10/06 04:34:25;;;;;;;18.35;11.07;;;;;;;;;;6219368;23;20099;-73
2022/10/06 04:36:53;;;;;;;35.38;20.65;;;;;;;;;;6219280;23;20054;-73
2022/10/06 04:39:21;;;;;;;28.45;13.93;;;;;;;;;;6219177;23;20040;-73
2022/10/06 04:41:48;;;;;;;25.77;12.90;;;;;;;;;;6217788;23;20074;-73
2022/10/06 04:44:23;;;;;;;26.92;12.80;;;;;;;;;;6218104;23;20016;-73
2022/10/06 04:46:52;;;;;;;30.15;12.13;;;;;;;;;;6218009;23;20024;-73
2022/10/06 04:49:20;;;;;;;26.20;13.80;;;;;;;;;;6218804;23;20050;-73
2022/10/06 04:51:51;;;;;;;28.08;15.15;;;;;;;;;;6218906;23;20020;-74
2022/10/06 04:54:18;;;;;;;22.13;9.98;;;;;;;;;;6219018;23;20016;-73
2022/10/06 04:56:49;;;;;;;20.20;9.48;;;;;;;;;;6219175;23;20098;-73
2022/10/06 05:00:21;;;;;;;15.25;9.15;;;;;;;;;;6218680;23;20021;-74
2022/10/06 05:02:09;;;;;;;20.15;10.18;;;;;;;;;;6219113;23;20351;-74
2022/10/06 05:04:38;;;;;;;17.23;10.35;;;;;;;;;;6219049;23;20024;-74
2022/10/06 05:07:06;;;;;;;17.25;11.00;;;;;;;;;;6219033;23;20020;-73
2022/10/06 05:09:34;;;;;;;15.60;9.23;;;;;;;;;;6245703;23;20012;-73
2022/10/06 05:12:02;;;;;;;18.77;10.98;;;;;;;;;;6218368;23;20024;-73
2022/10/06 05:14:32;;;;;;;23.90;12.30;;;;;;;;;;6217921;23;20020;-73
2022/10/06 05:16:59;;;;;;;19.98;11.98;;;;;;;;;;6219176;23;20059;-73
2022/10/06 05:19:28;;;;;;;19.05;12.30;;;;;;;;;;6219030;23;20103;-73
2022/10/06 05:21:56;;;;;;;18.80;11.38;;;;;;;;;;6218894;23;20328;-73
2022/10/06 05:24:27;;;;;;;19.27;12.20;;;;;;;;;;6218613;23;20514;-73
2022/10/06 05:26:55;;;;;;;22.77;12.75;;;;;;;;;;6218950;23;20047;-75
2022/10/06 05:29:28;;;;;;;15.13;8.60;;;;;;;;;;6219075;23;20024;-75
2022/10/06 05:31:56;;;;;;;15.02;9.38;;;;;;;;;;6245956;23;20066;-75
2022/10/06 05:34:24;;;;;;;16.17;8.48;;;;;;;;;;6218820;23;20019;-74
2022/10/06 05:36:51;;;;;;;16.83;9.23;;;;;;;;;;6218700;23;20016;-73
2022/10/06 05:39:20;;;;;;;13.80;8.60;;;;;;;;;;6218761;23;20078;-73
2022/10/06 05:41:56;;;;;;;14.10;9.00;;;;;;;;;;6218820;23;20454;-73
2022/10/06 05:44:24;;;;;;;12.05;7.93;;;;;;;;;;6218753;23;20027;-73
2022/10/06 05:46:53;;;;;;;9.07;6.72;;;;;;;;;;6218433;23;20103;-73
2022/10/06 05:49:21;;;;;;;9.98;7.28;;;;;;;;;;6218689;23;20020;-73
2022/10/06 05:51:54;;;;;;;11.65;8.20;;;;;;;;;;6218585;23;20074;-74
2022/10/06 05:54:25;;;;;;;11.82;8.45;;;;;;;;;;6218610;23;20480;-74
2022/10/06 05:56:53;;;;;;;11.75;9.43;;;;;;;;;;6218572;23;20023;-74
2022/10/06 05:59:21;;;;;;;11.23;9.23;;;;;;;;;;6218580;23;20439;-74
2022/10/06 06:01:50;;;;;;;10.70;7.10;;;;;;;;;;6218498;23;20044;-74
2022/10/06 06:04:29;;;;;;;9.82;6.38;;;;;;;;;;6218474;23;20392;-74
2022/10/06 06:06:57;;;;;;;9.27;5.30;;;;;;;;;;6245677;23;20074;-74
2022/10/06 06:09:27;;;;;;;8.15;5.50;;;;;;;;;;6218468;23;20434;-74
2022/10/06 06:11:58;;;;;;;6.78;5.47;;;;;;;;;;6218465;23;20512;-75
2022/10/06 06:17:23;;;;;;;9.85;5.03;;;;;;;;;;6243825;23;20016;-76
2022/10/06 06:19:51;;;;;;;9.38;5.88;;;;;;;;;;6193721;23;20026;-76
2022/10/06 06:22:19;;;;;;;7.93;4.80;;;;;;;;;;6218502;23;20016;-77
2022/10/06 06:24:49;;;;;;;7.75;4.95;;;;;;;;;;6218247;23;20099;-76
2022/10/06 06:27:17;;;;;;;7.00;4.60;;;;;;;;;;6218529;23;20466;-75
2022/10/06 06:29:44;;;;;;;11.75;5.30;;;;;;;;;;6218592;23;20469;-75
2022/10/06 06:32:12;;;;;;;6.70;5.00;;;;;;;;;;6218485;23;20043;-75
2022/10/06 06:34:40;;;;;;;7.93;5.75;;;;;;;;;;6218439;23;20020;-75
2022/10/06 06:37:09;;;;;;;9.52;6.18;;;;;;;;;;6218510;23;20027;-75
2022/10/06 06:39:42;;;;;;;10.63;7.43;;;;;;;;;;6218288;23;20012;-75
2022/10/06 06:42:09;;;;;;;9.65;6.32;;;;;;;;;;6218114;23;20039;-75
2022/10/06 06:44:59;;;;;;;11.48;7.82;;;;;;;;;;6244780;23;20031;-75
2022/10/06 06:47:34;;;;;;;9.18;5.90;;;;;;;;;;6218303;23;20024;-75
2022/10/06 06:50:08;;;;;;;9.48;6.15;;;;;;;;;;6218740;23;20047;-75
2022/10/06 06:52:38;;;;;;;8.20;5.60;;;;;;;;;;6220330;23;20357;-76
2022/10/06 06:55:08;;;;;;;10.23;6.18;;;;;;;;;;6220350;23;20523;-75
2022/10/06 06:57:36;;;;;;;12.93;9.15;;;;;;;;;;6220472;23;20024;-76
2022/10/06 07:00:06;;;;;;;9.65;7.43;;;;;;;;;;6220398;23;20020;-76
2022/10/06 07:02:36;;;;;;;14.82;10.63;;;;;;;;;;6220206;23;20350;-76
2022/10/06 07:05:04;;;;;;;9.65;5.05;;;;;;;;;;6220315;23;20027;-76
2022/10/06 07:07:31;;;;;;;6.57;5.07;;;;;;;;;;6220321;23;20024;-75
2022/10/06 07:09:59;;;;;;;13.27;8.90;;;;;;;;;;6220211;23;20126;-75
2022/10/06 07:12:30;;;;;;;8.57;5.65;;;;;;;;;;6220254;23;20016;-75
2022/10/06 07:26:16;;;;;;;22.73;16.65;;;;;;;;;;6244452;23;20039;-74
2022/10/06 07:28:44;;;;;;;43.72;31.02;;;;;;;;;;6219610;23;20100;-73
2022/10/06 07:31:16;;;;;;;6.07;4.57;;;;;;;;;;6219618;23;20020;-74
2022/10/06 07:33:44;;;;;;;18.48;13.23;;;;;;;;;;6219409;23;20016;-74
2022/10/06 07:36:12;;;;;;;13.38;10.57;;;;;;;;;;6220450;23;20027;-74
2022/10/06 07:38:40;;;;;;;6.82;5.13;;;;;;;;;;6194981;23;20055;-74
2022/10/06 07:41:07;;;;;;;7.50;5.30;;;;;;;;;;6219933;23;20091;-74
2022/10/06 07:43:56;;;;;;;10.20;7.07;;;;;;;;;;6220049;23;20031;-74
2022/10/06 07:46:27;;;;;;;8.05;4.57;;;;;;;;;;6220123;23;20016;-73
2022/10/06 07:49:02;;;;;;;10.25;4.60;;;;;;;;;;6219920;23;20516;-73
2022/10/06 07:51:30;;;;;;;11.70;8.45;;;;;;;;;;6219773;23;20040;-73
2022/10/06 07:53:58;;;;;;;7.60;5.18;;;;;;;;;;6219570;23;20469;-73
2022/10/06 07:56:46;;;;;;;13.80;9.52;;;;;;;;;;6245828;23;20082;-74
2022/10/06 07:59:13;;;;;;;8.48;6.32;;;;;;;;;;6246451;23;20016;-75
2022/10/06 08:01:43;;;;;;;12.02;5.57;;;;;;;;;;6245491;23;20020;-74
2022/10/06 08:04:11;;;;;;;18.63;12.10;;;;;;;;;;6246316;23;20092;-74
2022/10/06 08:06:39;;;;;;;9.05;6.00;;;;;;;;;;6246376;23;20086;-74
2022/10/06 08:09:06;;;;;;;9.70;5.63;;;;;;;;;;6219624;23;20374;-75
2022/10/06 08:11:34;;;;;;;5.07;3.75;;;;;;;;;;6246342;23;20038;-74
2022/10/06 08:14:01;;;;;;;7.60;5.70;;;;;;;;;;6246365;23;20374;-74
2022/10/06 08:16:30;;;;;;;6.68;4.88;;;;;;;;;;6246220;23;20083;-74
2022/10/06 08:18:58;;;;;;;8.68;5.10;;;;;;;;;;6246276;23;20020;-74
2022/10/06 08:21:27;;;;;;;6.78;4.57;;;;;;;;;;6246196;23;20016;-74
2022/10/06 08:23:55;;;;;;;7.32;5.45;;;;;;;;;;6246547;23;20016;-74
2022/10/06 08:26:24;;;;;;;9.75;5.13;;;;;;;;;;6246080;23;20091;-74
2022/10/06 08:28:52;;;;;;;8.05;4.50;;;;;;;;;;6246340;23;20016;-74
2022/10/06 08:31:20;;;;;;;11.75;8.40;;;;;;;;;;6246310;23;20083;-74
2022/10/06 08:33:48;;;;;;;8.75;4.68;;;;;;;;;;6246445;23;20027;-75
2022/10/06 08:36:17;;;;;;;8.95;4.90;;;;;;;;;;6246412;23;20027;-74
2022/10/06 08:38:48;;;;;;;7.80;4.07;;;;;;;;;;6246342;23;20020;-74
2022/10/06 08:41:21;;;;;;;7.32;4.10;;;;;;;;;;6246659;23;20348;-75
2022/10/06 08:43:58;;;;;;;6.47;3.72;;;;;;;;;;6246280;23;20016;-74
2022/10/06 08:46:28;;;;;;;5.80;3.40;;;;;;;;;;6219413;23;20024;-75
2022/10/06 08:48:57;;;;;;;7.38;4.03;;;;;;;;;;6246423;23;20016;-75
2022/10/06 08:51:30;;;;;;;6.07;3.80;;;;;;;;;;6246306;23;20387;-75
2022/10/06 08:54:18;;;;;;;6.25;3.72;;;;;;;;;;6245975;23;20012;-74
2022/10/06 08:57:04;;;;;;;5.60;3.30;;;;;;;;;;6226206;23;20020;-74
2022/10/06 08:59:35;;;;;;;5.75;4.63;;;;;;;;;;6245943;23;20031;-74
2022/10/06 09:02:09;;;;;;;9.18;5.30;;;;;;;;;;6219019;23;20345;-74
2022/10/06 09:04:37;;;;;;;19.40;13.83;;;;;;;;;;6246491;23;20038;-74
2022/10/06 09:07:14;;;;;;;27.70;19.52;;;;;;;;;;6245928;23;20012;-74
2022/10/06 09:09:52;;;;;;;8.60;5.85;;;;;;;;;;6246011;23;20526;-75
2022/10/06 09:12:36;;;;;;;4.03;3.28;;;;;;;;;;6245914;23;20031;-74
2022/10/06 09:15:22;;;;;;;6.78;3.97;;;;;;;;;;6245988;23;20027;-74
2022/10/06 09:17:53;;;;;;;5.50;3.50;;;;;;;;;;6245683;23;20094;-75
2022/10/06 09:20:21;;;;;;;5.40;3.85;;;;;;;;;;6245911;23;20036;-75
2022/10/06 09:22:49;;;;;;;8.65;2.47;;;;;;;;;;6245685;23;20012;-74
2022/10/06 09:25:18;;;;;;;8.15;3.72;;;;;;;;;;6245668;23;20027;-74
2022/10/06 09:27:49;;;;;;;4.45;3.28;;;;;;;;;;6219186;23;20059;-74
2022/10/06 09:30:17;;;;;;;6.57;3.88;;;;;;;;;;6245929;23;20023;-75
2022/10/06 09:32:46;;;;;;;4.93;2.95;;;;;;;;;;6245756;23;20115;-75
2022/10/06 09:35:19;;;;;;;4.55;3.20;;;;;;;;;;6245760;23;20012;-75
2022/10/06 09:37:56;;;;;;;4.75;3.22;;;;;;;;;;6245726;23;20016;-75
2022/10/06 09:40:35;;;;;;;8.68;5.63;;;;;;;;;;6245737;23;20016;-75
2022/10/06 09:43:15;;;;;;;5.57;3.28;;;;;;;;;;6245545;23;20016;-74
2022/10/06 09:45:43;;;;;;;5.45;3.80;;;;;;;;;;6245579;23;20016;-74
2022/10/06 09:48:26;;;;;;;10.27;5.03;;;;;;;;;;6245689;23;20054;-75
2022/10/06 09:51:13;;;;;;;5.60;2.47;;;;;;;;;;6245725;23;20047;-75
2022/10/06 09:53:42;;;;;;;5.85;3.03;;;;;;;;;;6245555;23;20016;-74
2022/10/06 09:56:20;;;;;;;11.30;7.97;;;;;;;;;;6245531;23;20474;-74
2022/10/06 09:58:55;;;;;;;5.70;4.55;;;;;;;;;;6245510;23;20018;-75
2022/10/06 10:01:24;;;;;;;4.00;3.17;;;;;;;;;;6245876;23;20449;-74
2022/10/06 10:03:59;;;;;;;6.10;4.10;;;;;;;;;;6218546;23;20026;-75
2022/10/06 10:06:47;;;;;;;5.53;3.80;;;;;;;;;;6245563;23;20016;-74
2022/10/06 10:09:18;;;;;;;5.43;3.45;;;;;;;;;;6245547;23;20020;-74
2022/10/06 10:14:47;;;;;;;8.40;4.25;;;;;;;;;;6245565;23;20016;-73
2022/10/06 10:17:31;;;;;;;6.05;3.08;;;;;;;;;;6245475;23;20104;-75
2022/10/06 10:20:01;;;;;;;4.47;3.03;;;;;;;;;;6218923;23;20426;-74
2022/10/06 10:22:34;;;;;;;4.80;2.90;;;;;;;;;;6245602;23;20016;-75
2022/10/06 10:25:05;;;;;;;9.18;5.28;;;;;;;;;;6244828;23;20343;-75
2022/10/06 10:27:32;;;;;;;4.90;2.90;;;;;;;;;;6245658;23;20012;-74
2022/10/06 10:30:08;;;;;;;6.50;3.25;;;;;;;;;;6245580;23;20024;-75
2022/10/06 10:32:36;;;;;;;4.30;2.83;;;;;;;;;;6245218;23;20038;-74
2022/10/06 10:35:15;;;;;;;3.67;3.03;;;;;;;;;;6245403;23;20019;-75
2022/10/06 10:37:42;;;;;;;7.70;4.28;;;;;;;;;;6245135;23;20009;-75
2022/10/06 10:40:14;;;;;;;5.80;4.05;;;;;;;;;;6245173;23;20020;-74
2022/10/06 10:42:54;;;;;;;7.30;2.92;;;;;;;;;;6245057;23;20016;-75
2022/10/06 10:45:24;;;;;;;13.57;9.07;;;;;;;;;;6245284;23;20316;-75
2022/10/06 10:47:52;;;;;;;5.72;4.38;;;;;;;;;;6245359;23;20012;-75
2022/10/06 10:50:26;;;;;;;5.97;3.50;;;;;;;;;;6245315;23;20020;-75
2022/10/06 10:52:55;;;;;;;5.53;3.65;;;;;;;;;;6218279;23;20346;-75
2022/10/06 10:55:41;;;;;;;7.97;4.47;;;;;;;;;;6245702;23;20454;-76
2022/10/06 10:58:14;;;;;;;3.63;2.50;;;;;;;;;;6245350;23;20012;-75
2022/10/06 11:00:45;;;;;;;6.63;4.65;;;;;;;;;;6245268;23;20446;-76
2022/10/06 11:03:12;;;;;;;5.70;3.30;;;;;;;;;;6245113;23;20027;-76
2022/10/06 11:05:54;;;;;;;4.95;3.03;;;;;;;;;;6244882;23;20024;-77
2022/10/06 11:08:23;;;;;;;3.95;2.67;;;;;;;;;;6244914;23;20316;-75
2022/10/06 11:10:59;;;;;;;6.07;2.95;;;;;;;;;;6244844;23;20449;-75
2022/10/06 11:13:26;;;;;;;6.68;2.83;;;;;;;;;;6245312;23;20039;-74
2022/10/06 11:15:54;;;;;;;4.35;3.00;;;;;;;;;;6245111;23;20363;-75
2022/10/06 11:18:40;;;;;;;4.22;2.35;;;;;;;;;;6245086;23;20389;-75
2022/10/06 11:21:16;;;;;;;4.65;2.67;;;;;;;;;;6244929;23;20043;-75
2022/10/06 11:24:02;;;;;;;3.35;2.22;;;;;;;;;;6244737;23;20016;-75
2022/10/06 11:26:30;;;;;;;5.53;2.63;;;;;;;;;;6244952;23;20020;-74
2022/10/06 11:29:06;;;;;;;12.30;8.35;;;;;;;;;;6245072;23;20534;-75
2022/10/06 11:31:33;;;;;;;5.30;2.40;;;;;;;;;;6245036;23;20316;-74
2022/10/06 11:34:02;;;;;;;5.72;4.18;;;;;;;;;;6245032;23;20020;-74
2022/10/06 11:36:38;;;;;;;9.43;4.35;;;;;;;;;;6245619;23;20016;-75
2022/10/06 11:39:26;;;;;;;3.17;2.20;;;;;;;;;;6246856;23;20078;-75
2022/10/06 11:42:06;;;;;;;4.82;3.10;;;;;;;;;;6219769;23;20020;-75
2022/10/06 11:44:36;;;;;;;7.50;3.60;;;;;;;;;;6247116;23;20016;-75
2022/10/06 11:47:06;;;;;;;4.00;2.58;;;;;;;;;;6246934;23;20023;-75
2022/10/06 11:49:52;;;;;;;5.05;3.35;;;;;;;;;;6246936;23;20040;-75
2022/10/06 11:52:19;;;;;;;3.65;2.20;;;;;;;;;;6219918;23;20024;-75
2022/10/06 11:54:49;;;;;;;4.32;2.50;;;;;;;;;;6246939;23;20016;-75
2022/10/06 11:57:24;;;;;;;8.63;5.35;;;;;;;;;;6246868;23;20016;-74
2022/10/06 12:00:03;;;;;;;4.45;1.85;;;;;;;;;;6246745;23;20024;-74
2022/10/06 12:02:37;;;;;;;4.07;3.05;;;;;;;;;;6246598;23;20020;-74
2022/10/06 12:05:13;;;;;;;4.65;2.40;;;;;;;;;;6246644;23;20016;-75
2022/10/06 12:08:01;;;;;;;6.07;3.33;;;;;;;;;;6246527;23;20016;-75
2022/10/06 12:10:28;;;;;;;6.50;4.65;;;;;;;;;;6246569;23;20350;-75
2022/10/06 12:13:14;;;;;;;5.72;3.75;;;;;;;;;;6246617;23;20020;-75
2022/10/06 12:16:05;;;;;;;6.25;3.22;;;;;;;;;;6224442;23;20062;-74
2022/10/06 12:18:52;;;;;;;5.40;2.95;;;;;;;;;;6246379;23;20019;-75
2022/10/06 12:21:26;;;;;;;5.35;3.83;;;;;;;;;;6246704;23;20316;-75
2022/10/06 12:23:53;;;;;;;4.57;3.07;;;;;;;;;;6246327;23;20343;-74
2022/10/06 12:26:26;;;;;;;6.75;3.00;;;;;;;;;;6246209;23;20020;-74
2022/10/06 12:28:59;;;;;;;3.67;2.75;;;;;;;;;;6246384;23;20016;-74
2022/10/06 12:31:52;;;;;;;4.40;3.22;;;;;;;;;;6246243;23;20022;-74
2022/10/06 12:34:38;;;;;;;8.90;3.50;;;;;;;;;;6215340;23;20020;-75
2022/10/06 12:37:25;;;;;;;4.63;2.55;;;;;;;;;;6246486;23;20389;-75
2022/10/06 12:39:52;;;;;;;5.13;3.17;;;;;;;;;;6246304;23;20100;-74
2022/10/06 12:42:20;;;;;;;6.93;4.60;;;;;;;;;;6246184;23;20467;-75
2022/10/06 12:44:48;;;;;;;6.40;3.45;;;;;;;;;;6246228;23;20346;-75
2022/10/06 12:47:29;;;;;;;5.97;4.10;;;;;;;;;;6246217;23;20012;-73
2022/10/06 12:50:00;;;;;;;2.83;2.30;;;;;;;;;;6246228;23;20446;-74
2022/10/06 12:52:37;;;;;;;4.25;2.08;;;;;;;;;;6246137;23;20012;-75
2022/10/06 12:55:14;;;;;;;5.50;3.10;;;;;;;;;;6246441;23;20434;-74
2022/10/06 12:57:46;;;;;;;4.00;2.28;;;;;;;;;;6245893;23;20465;-75
2022/10/06 13:00:42;;;;;;;7.40;3.83;;;;;;;;;;6246005;23;20026;-75
2022/10/06 13:03:17;;;;;;;7.85;2.55;;;;;;;;;;6221187;23;20024;-75
2022/10/06 13:05:49;;;;;;;4.40;2.80;;;;;;;;;;6246132;23;20353;-74
2022/10/06 13:08:25;;;;;;;6.75;2.90;;;;;;;;;;6245741;23;20453;-74
2022/10/06 13:11:10;;;;;;;5.10;2.60;;;;;;;;;;6245794;23;20027;-74
2022/10/06 13:13:38;;;;;;;4.85;2.65;;;;;;;;;;6245733;23;20020;-74
2022/10/06 13:16:07;;;;;;;6.70;2.35;;;;;;;;;;6245548;23;20036;-75
2022/10/06 13:18:35;;;;;;;6.03;3.70;;;;;;;;;;6218881;23;20024;-73
2022/10/06 13:21:03;;;;;;;5.45;2.47;;;;;;;;;;6245777;23;20062;-73
2022/10/06 13:23:30;;;;;;;3.38;2.63;;;;;;;;;;6245789;23;20082;-74
2022/10/06 13:26:18;;;;;;;3.28;2.25;;;;;;;;;;6245542;23;20086;-72
2022/10/06 13:28:47;;;;;;;5.32;2.92;;;;;;;;;;6245710;23;20012;-73
2022/10/06 13:31:14;;;;;;;2.95;2.10;;;;;;;;;;6245857;23;20040;-74
2022/10/06 13:33:43;;;;;;;9.70;3.78;;;;;;;;;;6218850;23;20035;-73
2022/10/06 13:36:11;;;;;;;6.22;3.28;;;;;;;;;;6245770;23;20115;-73
2022/10/06 13:38:40;;;;;;;5.22;2.92;;;;;;;;;;6245596;23;20012;-73
2022/10/06 13:41:10;;;;;;;6.07;2.42;;;;;;;;;;6245980;23;20390;-75
2022/10/06 13:43:39;;;;;;;4.03;2.50;;;;;;;;;;6245315;23;20016;-72
2022/10/06 13:46:09;;;;;;;4.95;2.00;;;;;;;;;;6244682;23;20016;-72
2022/10/06 13:48:37;;;;;;;5.18;2.50;;;;;;;;;;6245045;23;20373;-71
2022/10/06 13:51:05;;;;;;;5.68;3.20;;;;;;;;;;6245143;23;20016;-72
2022/10/06 13:53:32;;;;;;;13.82;11.68;;;;;;;;;;6245233;23;20020;-72
2022/10/06 13:56:00;;;;;;;10.93;2.90;;;;;;;;;;6245290;23;20452;-72
2022/10/06 13:58:29;;;;;;;7.32;3.33;;;;;;;;;;6245125;23;20026;-74
2022/10/06 14:01:00;;;;;;;11.75;7.22;;;;;;;;;;6244663;23;20092;-72
2022/10/06 14:03:34;;;;;;;3.33;2.30;;;;;;;;;;6244961;23;20066;-71
2022/10/06 14:06:07;;;;;;;10.07;5.40;;;;;;;;;;6245106;23;20039;-72
2022/10/06 14:08:35;;;;;;;5.82;3.55;;;;;;;;;;6245064;23;20074;-71
2022/10/06 14:11:04;;;;;;;6.72;3.95;;;;;;;;;;6245085;23;20012;-74
2022/10/06 14:13:32;;;;;;;4.30;2.60;;;;;;;;;;6245046;23;20016;-72
2022/10/06 14:16:04;;;;;;;5.07;2.45;;;;;;;;;;6245057;23;20073;-71
2022/10/06 14:18:38;;;;;;;7.47;4.30;;;;;;;;;;6244710;23;20016;-71
2022/10/06 14:21:24;;;;;;;4.10;2.65;;;;;;;;;;6218308;23;20036;-72
2022/10/06 14:23:53;;;;;;;4.93;2.42;;;;;;;;;;6244849;23;20062;-71
2022/10/06 14:26:25;;;;;;;8.73;4.22;;;;;;;;;;6244240;23;20013;-72
2022/10/06 14:28:53;;;;;;;2.92;2.30;;;;;;;;;;6244546;23;20015;-71
2022/10/06 14:31:21;;;;;;;4.10;3.03;;;;;;;;;;6245114;23;20020;-71
2022/10/06 14:33:51;;;;;;;19.17;13.48;;;;;;;;;;6245201;23;20012;-74
2022/10/06 14:36:20;;;;;;;6.60;3.80;;;;;;;;;;6245252;23;20071;-71
2022/10/06 14:38:48;;;;;;;4.70;2.45;;;;;;;;;;6245191;23;20095;-71
2022/10/06 14:41:18;;;;;;;9.43;6.93;;;;;;;;;;6245021;23;20099;-71
2022/10/06 14:43:46;;;;;;;3.78;2.90;;;;;;;;;;6245004;23;20019;-71
2022/10/06 14:46:14;;;;;;;4.55;2.90;;;;;;;;;;6216364;23;20426;-71
2022/10/06 14:48:41;;;;;;;9.88;5.50;;;;;;;;;;6244068;23;20021;-72
2022/10/06 14:51:09;;;;;;;9.05;5.30;;;;;;;;;;6218060;23;20023;-72
2022/10/06 14:53:38;;;;;;;6.75;2.85;;;;;;;;;;6244957;23;20431;-72
2022/10/06 14:56:10;;;;;;;7.35;2.45;;;;;;;;;;6244968;23;20027;-72
2022/10/06 14:58:39;;;;;;;5.72;2.95;;;;;;;;;;6244875;23;20017;-72
2022/10/06 15:01:07;;;;;;;4.28;3.00;;;;;;;;;;6244905;23;20049;-72
2022/10/06 15:03:35;;;;;;;5.00;2.80;;;;;;;;;;6244148;23;20047;-72
2022/10/06 15:08:54;;;;;;;9.15;4.10;;;;;;;;;;6244506;23;20012;-72
2022/10/06 15:11:23;;;;;;;10.50;3.92;;;;;;;;;;6245151;23;20016;-80
2022/10/06 15:13:52;;;;;;;7.47;2.88;;;;;;;;;;6220554;23;20016;-83